Time;durP1;ratioP1;P1;durP2;ratioP2;P2;SDS_P1;SDS_P2;PMS_P1;PMS_P2;Temp;Humidity;BMP_temperature;BMP_pressure;BME280_temperature;BME280_humidity;BME280_pressure;Samples;Min_cycle;Max_cycle;Signal;HPM_P1;HPM_P2
2022/05/24 00:00:34;;;;;;;5.07;3.60;;;16.00;99.90;;;;;;5033558;28;20418;-66
2022/05/24 00:03:00;;;;;;;5.07;4.67;;;15.80;99.90;;;;;;5033053;28;20552;-72
2022/05/24 00:05:31;;;;;;;5.40;4.70;;;15.70;99.90;;;;;;5033805;28;21011;-67
2022/05/24 00:07:59;;;;;;;5.10;4.00;;;15.50;99.90;;;;;;5033237;28;20434;-71
2022/05/24 00:10:29;;;;;;;7.43;4.70;;;15.50;99.90;;;;;;5035240;28;20945;-71
2022/05/24 00:12:56;;;;;;;4.60;4.30;;;15.50;99.90;;;;;;5033338;28;20422;-66
2022/05/24 00:15:23;;;;;;;5.27;4.40;;;15.30;99.90;;;;;;5034395;28;20857;-73
2022/05/24 00:18:02;;;;;;;4.87;4.13;;;15.30;99.90;;;;;;5033659;28;20810;-72
2022/05/24 00:20:33;;;;;;;7.40;5.10;;;15.30;99.90;;;;;;5034782;28;20946;-73
2022/05/24 00:22:59;;;;;;;4.60;4.20;;;15.20;99.90;;;;;;5034647;28;20426;-73
2022/05/24 00:25:26;;;;;;;5.60;4.40;;;15.10;99.90;;;;;;5034288;28;20580;-73
2022/05/24 00:27:52;;;;;;;5.30;4.80;;;15.10;99.90;;;;;;5031467;28;20439;-73
2022/05/24 00:30:19;;;;;;;13.00;4.67;;;15.00;99.90;;;;;;5034832;28;20763;-73
2022/05/24 00:32:45;;;;;;;5.20;4.80;;;15.00;99.90;;;;;;5033604;28;20501;-73
2022/05/24 00:35:14;;;;;;;5.33;4.93;;;14.90;99.90;;;;;;5032911;28;20775;-68
2022/05/24 00:37:42;;;;;;;5.07;4.70;;;14.90;99.90;;;;;;5033126;28;20422;-68
2022/05/24 00:40:12;;;;;;;5.73;4.80;;;14.90;1.00;;;;;;5034320;28;20406;-74
2022/05/24 00:42:40;;;;;;;4.90;4.40;;;14.80;1.00;;;;;;5032900;28;20457;-74
2022/05/24 00:45:06;;;;;;;6.17;4.60;;;14.80;1.00;;;;;;5034527;28;20461;-74
2022/05/24 00:48:03;;;;;;;5.50;5.10;;;14.80;1.00;;;;;;5032629;28;20475;-73
2022/05/24 00:50:34;;;;;;;5.00;4.60;;;14.70;1.00;;;;;;5033128;28;20446;-76
2022/05/24 00:53:20;;;;;;;4.60;4.27;;;14.70;1.00;;;;;;5032965;28;20414;-69
2022/05/24 00:56:06;;;;;;;4.80;4.50;;;14.80;1.00;;;;;;5031448;28;20431;-75
2022/05/24 00:58:52;;;;;;;5.23;4.73;;;14.70;1.00;;;;;;5031588;28;20520;-75
2022/05/24 01:01:40;;;;;;;7.80;4.53;;;14.60;1.00;;;;;;5034360;28;20391;-68
2022/05/24 01:04:11;;;;;;;8.07;4.37;;;14.70;1.00;;;;;;5014351;28;20454;-75
2022/05/24 01:06:37;;;;;;;5.20;4.80;;;14.70;1.00;;;;;;5014290;28;20419;-74
2022/05/24 01:09:07;;;;;;;4.67;4.37;;;14.70;1.00;;;;;;5033546;28;20413;-68
2022/05/24 01:11:38;;;;;;;11.40;5.30;;;14.70;1.00;;;;;;5033188;28;20472;-75
2022/05/24 01:14:07;;;;;;;11.00;4.90;;;14.70;1.00;;;;;;5033712;28;20409;-69
2022/05/24 01:16:33;;;;;;;4.80;4.50;;;14.70;1.00;;;;;;5030467;28;20413;-75
2022/05/24 01:18:59;;;;;;;3.57;3.37;;;14.80;1.00;;;;;;5032903;28;20419;-70
2022/05/24 01:21:25;;;;;;;5.43;4.53;;;14.70;1.00;;;;;;5033161;28;20471;-70
2022/05/24 01:24:11;;;;;;;5.63;5.10;;;14.70;1.00;;;;;;5033283;28;20450;-71
2022/05/24 01:26:45;;;;;;;8.13;5.07;;;14.70;1.00;;;;;;5031182;28;20461;-76
2022/05/24 01:29:12;;;;;;;5.53;5.07;;;14.70;1.00;;;;;;5033058;28;20491;-73
2022/05/24 01:37:08;;;;;;;6.20;5.33;;;14.60;1.00;;;;;;5032698;28;20425;-76
2022/05/24 01:39:35;;;;;;;8.87;4.97;;;14.70;1.00;;;;;;5033116;28;20442;-69
2022/05/24 01:42:02;;;;;;;5.10;4.70;;;14.70;1.00;;;;;;5032380;28;20441;-75
2022/05/24 01:44:52;;;;;;;5.30;4.50;;;14.70;1.00;;;;;;5032561;28;20541;-69
2022/05/24 01:47:19;;;;;;;9.60;5.20;;;14.70;1.00;;;;;;5028779;28;20389;-69
2022/05/24 01:50:02;;;;;;;5.93;5.53;;;14.70;1.00;;;;;;5032033;28;20824;-69
2022/05/24 01:52:33;;;;;;;5.40;4.90;;;14.60;1.00;;;;;;5032965;28;20406;-70
2022/05/24 01:55:08;;;;;;;4.93;4.50;;;14.60;1.00;;;;;;5032996;28;20418;-76
2022/05/24 01:57:47;;;;;;;6.00;5.50;;;14.70;1.00;;;;;;5032120;28;20492;-75
2022/05/24 02:00:17;;;;;;;6.30;5.80;;;14.70;1.00;;;;;;5032224;28;20441;-72
2022/05/24 02:05:36;;;;;;;5.20;4.70;;;14.60;12.70;;;;;;5033365;28;20478;-74
2022/05/24 02:08:09;;;;;;;6.20;5.60;;;14.60;27.00;;;;;;5035312;28;20408;-69
2022/05/24 02:10:50;;;;;;;6.73;5.17;;;14.70;37.00;;;;;;5036221;28;20397;-70
2022/05/24 02:13:27;;;;;;;5.50;5.00;;;14.70;45.10;;;;;;5035732;28;20434;-75
2022/05/24 02:15:56;;;;;;;4.77;4.47;;;14.70;62.70;;;;;;5037149;28;20417;-76
2022/05/24 02:18:23;;;;;;;5.70;5.20;;;14.80;78.60;;;;;;5036031;28;20440;-75
2022/05/24 02:20:49;;;;;;;5.43;5.03;;;14.70;83.10;;;;;;5036936;28;20424;-75
2022/05/24 02:23:18;;;;;;;6.00;5.50;;;14.80;85.70;;;;;;5036262;28;20472;-70
2022/05/24 02:25:50;;;;;;;6.03;5.43;;;14.80;92.10;;;;;;5036764;28;20187;-75
2022/05/24 02:28:18;;;;;;;9.03;4.70;;;14.80;98.50;;;;;;5034351;28;20483;-76
2022/05/24 02:30:48;;;;;;;5.40;4.90;;;14.80;99.90;;;;;;5035271;28;20393;-76
2022/05/24 02:33:14;;;;;;;13.93;6.70;;;14.80;99.90;;;;;;5036191;28;20576;-76
2022/05/24 02:35:40;;;;;;;6.60;6.00;;;14.90;99.90;;;;;;5035832;28;20432;-76
2022/05/24 02:38:06;;;;;;;6.07;5.50;;;14.80;99.90;;;;;;5035346;28;20436;-71
2022/05/24 02:43:17;;;;;;;5.60;5.20;;;14.90;99.90;;;;;;5027757;28;20413;-70
2022/05/24 02:45:43;;;;;;;6.93;6.23;;;14.80;99.90;;;;;;5035366;28;20858;-76
2022/05/24 02:48:09;;;;;;;6.47;5.70;;;14.80;99.90;;;;;;5035534;28;20465;-72
2022/05/24 02:50:41;;;;;;;6.80;6.30;;;14.80;99.90;;;;;;5036569;28;20889;-76
2022/05/24 02:53:07;;;;;;;7.37;6.67;;;14.80;99.90;;;;;;5035954;28;20425;-71
2022/05/24 02:55:33;;;;;;;5.87;5.40;;;14.80;99.90;;;;;;5034531;28;20426;-77
2022/05/24 02:57:59;;;;;;;10.00;8.07;;;14.80;99.90;;;;;;5031808;28;20282;-72
2022/05/24 03:00:25;;;;;;;7.80;7.03;;;14.80;99.90;;;;;;5036372;28;20900;-73
2022/05/24 03:02:52;;;;;;;9.00;7.20;;;14.70;99.90;;;;;;5034751;28;20636;-76
2022/05/24 03:05:18;;;;;;;9.20;8.40;;;14.80;99.90;;;;;;5036359;28;20424;-72
2022/05/24 03:10:29;;;;;;;11.00;6.00;;;14.70;99.90;;;;;;5036043;28;20407;-77
2022/05/24 03:15:41;;;;;;;6.30;5.73;;;14.50;99.90;;;;;;5036129;28;20510;-74
2022/05/24 03:18:08;;;;;;;6.77;6.20;;;14.40;99.90;;;;;;5033080;28;20515;-76
2022/05/24 03:20:34;;;;;;;7.43;6.50;;;14.40;99.90;;;;;;5035644;28;20933;-74
2022/05/24 03:23:00;;;;;;;7.00;6.47;;;14.30;99.90;;;;;;5035229;28;20392;-73
2022/05/24 03:25:26;;;;;;;7.40;6.70;;;14.30;99.90;;;;;;5034762;28;20203;-74
2022/05/24 03:27:51;;;;;;;6.93;6.27;;;14.30;99.90;;;;;;5034054;28;20446;-72
2022/05/24 03:30:18;;;;;;;6.23;5.63;;;14.30;99.90;;;;;;5035985;28;20168;-73
2022/05/24 03:32:44;;;;;;;6.87;6.30;;;14.30;99.90;;;;;;5035731;28;20629;-74
2022/05/24 03:35:11;;;;;;;6.60;6.00;;;14.20;99.90;;;;;;5034229;28;20500;-75
2022/05/24 03:37:38;;;;;;;6.40;5.80;;;14.20;99.90;;;;;;5049485;28;20168;-72
2022/05/24 03:40:05;;;;;;;6.77;6.23;;;14.20;99.90;;;;;;5035380;28;20422;-76
2022/05/24 03:42:30;;;;;;;8.43;7.10;;;14.20;99.90;;;;;;5035356;28;20421;-72
2022/05/24 03:44:56;;;;;;;7.57;6.60;;;14.20;99.90;;;;;;5035105;28;20509;-76
2022/05/24 03:47:22;;;;;;;8.17;7.47;;;14.20;99.90;;;;;;5032169;28;20168;-76
2022/05/24 03:49:48;;;;;;;8.40;7.60;;;14.20;99.90;;;;;;5034454;28;20196;-74
2022/05/24 03:52:14;;;;;;;8.50;7.70;;;14.20;99.90;;;;;;5033441;28;20525;-76
2022/05/24 03:54:39;;;;;;;8.73;7.90;;;14.20;99.90;;;;;;5035184;28;20778;-73
2022/05/24 03:59:49;;;;;;;11.90;9.93;;;14.10;99.90;;;;;;5034444;28;20198;-76
2022/05/24 04:02:15;;;;;;;13.47;10.40;;;14.00;99.90;;;;;;5034865;28;20384;-75
2022/05/24 04:04:42;;;;;;;14.13;10.70;;;14.00;99.90;;;;;;5034996;28;20664;-72
2022/05/24 04:07:08;;;;;;;14.70;11.70;;;14.00;99.90;;;;;;5032389;28;20415;-73
2022/05/24 04:09:35;;;;;;;11.00;9.80;;;14.00;99.90;;;;;;5034478;28;20796;-76
2022/05/24 04:12:01;;;;;;;15.97;13.33;;;14.00;99.90;;;;;;5033669;28;20527;-74
2022/05/24 04:14:31;;;;;;;16.10;12.17;;;14.10;99.90;;;;;;5034258;28;20918;-72
2022/05/24 04:16:57;;;;;;;14.63;11.43;;;14.10;99.90;;;;;;5032779;28;20421;-72
2022/05/24 04:19:23;;;;;;;13.10;10.87;;;14.00;99.90;;;;;;5034328;28;20491;-76
2022/05/24 04:21:48;;;;;;;12.30;10.80;;;14.00;99.90;;;;;;5034467;28;20216;-71
2022/05/24 04:24:14;;;;;;;10.90;9.07;;;13.90;99.90;;;;;;5032999;28;20203;-73
2022/05/24 04:26:40;;;;;;;15.30;10.00;;;13.90;99.90;;;;;;5033700;28;20179;-76
2022/05/24 04:29:06;;;;;;;11.77;8.77;;;13.90;99.90;;;;;;5033649;28;20333;-76
2022/05/24 04:31:32;;;;;;;10.83;9.77;;;13.80;99.90;;;;;;5034086;28;20487;-71
2022/05/24 04:33:57;;;;;;;11.20;7.40;;;13.80;99.90;;;;;;5034761;28;20388;-72
2022/05/24 04:36:23;;;;;;;10.67;8.00;;;13.80;99.90;;;;;;5033122;28;20644;-71
2022/05/24 04:38:49;;;;;;;16.53;7.67;;;13.80;99.90;;;;;;5032947;28;20227;-76
2022/05/24 04:44:02;;;;;;;9.30;7.80;;;13.90;99.90;;;;;;5034029;28;20570;-76
2022/05/24 04:47:06;;;;;;;9.80;6.47;;;14.10;99.90;;;;;;5032632;28;20427;-75
2022/05/24 04:49:16;;;;;;;9.20;7.70;;;14.10;99.90;;;;;;5033403;28;20834;-72
2022/05/24 04:51:41;;;;;;;7.97;7.27;;;14.10;99.90;;;;;;5032830;28;20423;-72
2022/05/24 04:54:07;;;;;;;7.63;5.80;;;14.10;99.90;;;;;;5034057;28;20258;-75
2022/05/24 04:56:33;;;;;;;8.87;6.43;;;14.10;99.90;;;;;;5032119;28;20539;-76
2022/05/24 04:58:58;;;;;;;8.17;5.63;;;14.10;99.90;;;;;;5032963;28;20333;-76
2022/05/24 05:01:24;;;;;;;7.67;6.70;;;14.20;99.90;;;;;;5032669;28;20258;-74
2022/05/24 05:03:49;;;;;;;7.90;7.10;;;14.10;99.90;;;;;;5033149;28;20199;-72
2022/05/24 05:06:15;;;;;;;12.07;7.47;;;14.10;99.90;;;;;;5032530;28;20230;-71
2022/05/24 05:08:41;;;;;;;8.07;7.27;;;14.10;99.90;;;;;;5031249;28;20191;-75
2022/05/24 05:11:07;;;;;;;7.67;6.80;;;13.90;99.90;;;;;;5033829;28;20438;-70
2022/05/24 05:13:33;;;;;;;6.37;5.77;;;13.90;99.90;;;;;;5031135;28;20454;-71
2022/05/24 05:15:58;;;;;;;5.73;5.27;;;14.00;99.90;;;;;;5033193;28;20176;-76
2022/05/24 05:18:24;;;;;;;7.30;5.73;;;14.00;99.90;;;;;;5030724;28;20811;-74
2022/05/24 05:20:50;;;;;;;6.10;5.60;;;14.00;99.90;;;;;;5028409;28;20170;-77
2022/05/24 05:23:17;;;;;;;7.50;5.20;;;14.00;99.90;;;;;;5031889;28;20514;-73
2022/05/24 05:25:47;;;;;;;7.23;4.87;;;14.00;99.90;;;;;;5032293;28;20433;-77
2022/05/24 05:28:14;;;;;;;5.53;4.27;;;14.00;99.90;;;;;;5032522;28;20396;-69
2022/05/24 05:33:24;;;;;;;5.03;4.53;;;14.00;99.90;;;;;;5032228;28;20413;-70
2022/05/24 05:35:50;;;;;;;3.73;3.43;;;14.00;99.90;;;;;;5026581;28;20397;-75
2022/05/24 05:38:17;;;;;;;4.30;3.90;;;13.90;99.90;;;;;;5026133;28;20663;-75
2022/05/24 05:40:43;;;;;;;6.40;4.03;;;13.90;99.90;;;;;;5033099;28;20424;-69
2022/05/24 05:43:09;;;;;;;5.13;4.73;;;13.90;99.90;;;;;;5032849;28;20410;-69
2022/05/24 05:45:35;;;;;;;6.40;4.37;;;13.80;99.90;;;;;;5033006;28;20191;-75
2022/05/24 05:48:00;;;;;;;6.40;5.10;;;13.80;99.90;;;;;;5030176;28;20559;-69
2022/05/24 05:50:26;;;;;;;5.43;3.90;;;13.80;99.90;;;;;;5031102;28;20168;-70
2022/05/24 05:52:52;;;;;;;4.80;4.20;;;13.70;99.90;;;;;;5029838;28;20254;-70
2022/05/24 05:55:21;;;;;;;5.47;4.60;;;13.70;99.90;;;;;;5032055;28;20171;-75
2022/05/24 05:57:47;;;;;;;4.97;4.17;;;13.70;99.90;;;;;;5031765;28;20337;-71
2022/05/24 06:00:14;;;;;;;5.20;4.70;;;13.70;99.90;;;;;;5031503;28;20932;-70
2022/05/24 06:02:41;;;;;;;5.33;4.00;;;13.70;99.90;;;;;;5033051;28;20404;-70
2022/05/24 06:05:07;;;;;;;4.47;3.87;;;13.80;99.90;;;;;;5033013;28;20452;-76
2022/05/24 06:07:33;;;;;;;6.23;3.67;;;13.90;99.90;;;;;;5030581;28;20422;-75
2022/05/24 06:09:59;;;;;;;11.37;3.70;;;14.00;99.90;;;;;;5033061;28;20425;-76
2022/05/24 06:12:25;;;;;;;6.50;4.17;;;14.00;99.90;;;;;;5031837;28;20624;-68
2022/05/24 06:14:51;;;;;;;5.37;3.90;;;13.80;99.90;;;;;;5031700;28;20637;-68
2022/05/24 06:17:16;;;;;;;4.37;4.03;;;13.80;99.90;;;;;;5031637;28;20403;-70
2022/05/24 06:19:43;;;;;;;4.67;4.13;;;13.70;99.90;;;;;;5032851;28;20206;-69
2022/05/24 06:22:09;;;;;;;6.53;4.03;;;13.60;99.90;;;;;;5031629;28;20186;-69
2022/05/24 06:24:35;;;;;;;5.33;4.83;;;13.60;99.90;;;;;;5031918;28;20474;-69
2022/05/24 06:27:02;;;;;;;6.30;4.97;;;13.60;99.90;;;;;;5031298;28;20771;-75
2022/05/24 06:29:30;;;;;;;6.03;5.53;;;13.70;99.90;;;;;;5032398;28;20214;-69
2022/05/24 06:31:56;;;;;;;7.87;4.50;;;13.70;99.90;;;;;;5032951;28;20380;-76
2022/05/24 06:34:22;;;;;;;4.23;3.83;;;13.70;99.90;;;;;;5031661;28;20838;-75
2022/05/24 06:36:47;;;;;;;5.03;4.10;;;13.80;99.90;;;;;;5030932;28;20930;-70
2022/05/24 06:39:13;;;;;;;6.00;4.10;;;13.80;99.90;;;;;;5031775;28;20668;-70
2022/05/24 06:41:39;;;;;;;11.70;5.03;;;14.00;99.90;;;;;;5032961;28;20214;-69
2022/05/24 06:44:05;;;;;;;9.20;5.63;;;14.10;99.90;;;;;;5032897;28;20220;-70
2022/05/24 06:46:31;;;;;;;4.37;4.00;;;14.10;99.90;;;;;;5031662;28;20167;-71
2022/05/24 06:48:57;;;;;;;8.80;4.73;;;14.30;99.90;;;;;;5032789;28;20441;-76
2022/05/24 06:51:23;;;;;;;8.47;4.90;;;14.30;99.90;;;;;;5033734;28;20887;-76
2022/05/24 06:53:49;;;;;;;10.37;4.80;;;14.40;99.90;;;;;;5035589;28;20409;-71
2022/05/24 06:56:16;;;;;;;6.80;4.40;;;14.40;99.90;;;;;;5016674;28;20411;-69
2022/05/24 06:58:42;;;;;;;9.63;5.23;;;14.40;99.90;;;;;;5015901;28;20450;-76
2022/05/24 07:03:54;;;;;;;5.20;4.70;;;14.60;99.90;;;;;;5016306;28;20203;-70
2022/05/24 07:06:19;;;;;;;5.60;5.00;;;14.80;99.90;;;;;;5016440;28;20408;-70
2022/05/24 07:08:47;;;;;;;8.80;4.67;;;14.90;99.90;;;;;;5015885;28;20195;-69
2022/05/24 07:11:15;;;;;;;6.17;4.60;;;14.90;99.90;;;;;;5033557;28;20180;-69
2022/05/24 07:13:41;;;;;;;5.97;5.43;;;14.90;99.90;;;;;;5036474;28;20874;-70
2022/05/24 07:16:10;;;;;;;5.30;4.80;;;15.00;99.90;;;;;;5036322;28;20394;-76
2022/05/24 07:18:37;;;;;;;5.07;4.67;;;15.10;99.90;;;;;;5035382;28;20192;-77
2022/05/24 07:21:04;;;;;;;9.60;6.00;;;15.20;99.90;;;;;;5036152;28;20512;-76
2022/05/24 07:23:32;;;;;;;5.53;4.10;;;15.30;99.90;;;;;;5034550;28;20516;-69
2022/05/24 07:26:09;;;;;;;4.13;3.77;;;15.30;99.90;;;;;;5035970;28;20410;-76
2022/05/24 07:28:36;;;;;;;4.07;3.60;;;15.30;99.90;;;;;;5035104;28;20407;-68
2022/05/24 07:31:02;;;;;;;4.10;3.70;;;15.30;99.90;;;;;;5035881;28;20486;-70
2022/05/24 07:33:28;;;;;;;3.30;3.10;;;15.30;99.90;;;;;;5035986;28;20413;-76
2022/05/24 07:35:54;;;;;;;3.50;3.10;;;15.30;99.90;;;;;;5034915;28;20418;-77
2022/05/24 07:38:20;;;;;;;4.03;3.40;;;15.30;99.90;;;;;;5034870;28;20237;-68
2022/05/24 07:46:15;;;;;;;3.57;3.27;;;15.30;99.90;;;;;;5035599;28;20401;-69
2022/05/24 07:48:41;;;;;;;4.93;4.53;;;15.40;99.90;;;;;;5034804;28;20458;-68
2022/05/24 07:51:07;;;;;;;4.33;3.93;;;15.50;99.90;;;;;;5035523;28;20391;-76
2022/05/24 07:53:33;;;;;;;3.73;3.43;;;15.60;99.90;;;;;;5034488;28;20442;-76
2022/05/24 07:55:59;;;;;;;5.47;4.77;;;15.80;99.90;;;;;;5034597;28;20429;-68
2022/05/24 07:58:26;;;;;;;4.33;3.60;;;15.80;98.10;;;;;;5034007;28;20417;-76
2022/05/24 08:00:55;;;;;;;4.27;4.07;;;15.90;91.20;;;;;;5035309;28;20417;-76
2022/05/24 08:03:20;;;;;;;4.93;4.40;;;15.90;74.30;;;;;;5049773;28;20464;-76
2022/05/24 08:05:46;;;;;;;6.23;3.93;;;16.00;49.50;;;;;;5035305;28;20454;-76
2022/05/24 08:08:12;;;;;;;5.60;4.70;;;16.00;27.00;;;;;;5034264;28;20183;-77
2022/05/24 08:10:39;;;;;;;5.37;4.43;;;15.90;4.60;;;;;;5035268;28;20164;-76
2022/05/24 08:13:11;;;;;;;4.53;4.13;;;15.80;1.00;;;;;;5034213;28;20649;-75
2022/05/24 08:15:37;;;;;;;5.63;4.43;;;15.60;1.00;;;;;;5050581;28;20433;-76
2022/05/24 08:18:03;;;;;;;5.57;5.03;;;15.50;1.00;;;;;;5033851;28;20435;-76
2022/05/24 08:20:30;;;;;;;8.10;4.57;;;15.50;1.00;;;;;;5034043;28;20454;-67
2022/05/24 08:22:57;;;;;;;7.60;5.90;;;15.50;1.00;;;;;;5050663;28;20414;-67
2022/05/24 08:25:25;;;;;;;6.50;4.50;;;15.40;1.00;;;;;;5034629;28;20462;-69
2022/05/24 08:27:51;;;;;;;5.70;4.90;;;15.50;1.00;;;;;;5032838;28;20954;-67
2022/05/24 08:30:18;;;;;;;7.13;5.40;;;15.50;1.00;;;;;;5034924;28;20763;-76
2022/05/24 08:32:48;;;;;;;5.03;4.53;;;15.50;1.00;;;;;;5034726;28;20883;-76
2022/05/24 08:35:16;;;;;;;7.30;5.70;;;15.50;1.00;;;;;;5034322;28;20493;-77
2022/05/24 08:37:43;;;;;;;6.80;5.40;;;15.60;1.00;;;;;;5033568;28;20414;-68
2022/05/24 08:40:10;;;;;;;7.43;6.00;;;15.70;1.00;;;;;;5034805;28;20809;-76
2022/05/24 08:43:00;;;;;;;5.40;4.90;;;15.70;1.00;;;;;;5034563;28;20415;-76
2022/05/24 08:48:51;;;;;;;5.27;4.77;;;15.80;1.00;;;;;;5033504;28;20782;-68
2022/05/24 08:51:28;;;;;;;6.23;5.63;;;15.80;1.00;;;;;;5034049;28;20414;-77
2022/05/24 08:54:00;;;;;;;5.10;4.63;;;15.90;1.00;;;;;;5034320;28;20441;-68
2022/05/24 08:56:30;;;;;;;6.60;5.43;;;16.10;1.00;;;;;;5034198;28;20463;-68
2022/05/24 08:59:11;;;;;;;6.00;5.23;;;16.30;1.00;;;;;;5034184;28;20430;-75
2022/05/24 09:01:36;;;;;;;7.63;5.47;;;16.50;1.00;;;;;;5048559;28;20445;-75
2022/05/24 09:04:05;;;;;;;5.07;4.67;;;16.50;1.00;;;;;;5034070;28;20470;-68
2022/05/24 09:06:53;;;;;;;6.07;5.47;;;16.40;1.00;;;;;;5033330;28;20187;-74
2022/05/24 09:09:29;;;;;;;5.83;5.10;;;16.40;1.00;;;;;;5033810;28;20445;-76
2022/05/24 09:12:21;;;;;;;6.50;5.97;;;16.30;1.00;;;;;;5033732;28;20406;-76
2022/05/24 09:15:00;;;;;;;9.80;6.00;;;16.40;1.00;;;;;;5032463;28;20441;-68
2022/05/24 09:17:38;;;;;;;10.77;5.80;;;16.50;1.00;;;;;;5031941;28;20442;-69
2022/05/24 09:20:28;;;;;;;7.47;6.00;;;16.70;1.00;;;;;;5033833;28;20413;-69
2022/05/24 09:23:25;;;;;;;6.03;5.47;;;17.00;1.00;;;;;;5034143;28;20402;-77
2022/05/24 09:26:04;;;;;;;7.93;6.57;;;17.20;1.00;;;;;;5029970;28;20472;-68
2022/05/24 09:28:50;;;;;;;7.90;7.07;;;17.20;1.00;;;;;;5032700;28;21001;-77
2022/05/24 09:31:18;;;;;;;8.20;7.37;;;17.30;1.00;;;;;;5033881;28;20406;-76
2022/05/24 09:33:44;;;;;;;8.97;7.50;;;17.20;1.00;;;;;;5032762;28;20426;-68
2022/05/24 09:36:44;;;;;;;9.30;7.60;;;17.20;1.00;;;;;;5033594;28;20402;-72
2022/05/24 09:39:23;;;;;;;9.60;8.47;;;17.20;1.00;;;;;;5012610;28;20211;-76
2022/05/24 09:41:55;;;;;;;11.23;8.73;;;17.20;1.00;;;;;;5033370;28;20386;-76
2022/05/24 09:44:21;;;;;;;8.63;7.80;;;17.30;1.00;;;;;;5031914;28;20453;-78
2022/05/24 09:46:47;;;;;;;11.03;8.77;;;17.40;1.00;;;;;;5032522;28;20478;-67
2022/05/24 09:49:25;;;;;;;20.53;10.30;;;17.60;1.00;;;;;;5031518;28;20286;-68
2022/05/24 09:51:56;;;;;;;9.40;8.23;;;17.60;99.90;;;;;;5033442;28;20394;-76
2022/05/24 09:54:25;;;;;;;10.87;7.90;;;17.60;99.90;;;;;;5033378;28;20975;-67
2022/05/24 09:57:09;;;;;;;10.03;8.97;;;17.50;99.90;;;;;;5032471;28;20425;-67
2022/05/24 09:59:40;;;;;;;11.90;8.60;;;17.30;99.90;;;;;;5033291;28;20429;-77
2022/05/24 10:02:29;;;;;;;10.73;8.73;;;17.50;99.90;;;;;;5048225;28;20792;-68
2022/05/24 10:04:55;;;;;;;10.00;9.00;;;17.50;99.90;;;;;;5032096;28;20858;-76
2022/05/24 10:07:26;;;;;;;10.03;8.97;;;17.40;99.90;;;;;;5032589;28;20411;-76
2022/05/24 10:09:59;;;;;;;16.40;9.47;;;17.40;99.90;;;;;;5033285;28;20819;-67
2022/05/24 10:12:51;;;;;;;9.93;8.63;;;17.30;99.90;;;;;;5033072;28;20970;-76
2022/05/24 10:15:23;;;;;;;10.87;9.17;;;17.40;99.90;;;;;;5033356;28;20415;-76
2022/05/24 10:18:01;;;;;;;12.63;8.80;;;17.40;99.90;;;;;;5032323;28;20426;-67
2022/05/24 10:20:40;;;;;;;9.97;8.10;;;17.60;1.00;;;;;;5032665;28;20406;-76
2022/05/24 10:23:29;;;;;;;13.10;9.83;;;18.60;1.00;;;;;;5032140;28;20437;-67
2022/05/24 10:26:20;;;;;;;10.90;9.63;;;19.50;99.90;;;;;;5033228;28;20485;-77
2022/05/24 10:29:02;;;;;;;10.30;9.20;;;20.10;99.90;;;;;;5036414;28;20865;-76
2022/05/24 10:31:48;;;;;;;11.60;9.17;;;20.00;99.90;;;;;;5037271;28;20417;-67
2022/05/24 10:40:41;;;;;;;9.33;8.10;;;18.40;99.90;;;;;;5016800;28;20763;-77
2022/05/24 10:43:25;;;;;;;8.97;8.10;;;18.60;99.90;;;;;;5017201;28;20449;-66
2022/05/24 10:46:00;;;;;;;15.50;8.67;;;18.90;99.90;;;;;;5016994;28;20463;-67
2022/05/24 10:48:48;;;;;;;9.73;7.90;;;18.90;99.90;;;;;;5016019;28;20426;-67
2022/05/24 10:51:27;;;;;;;9.27;8.20;;;19.10;99.90;;;;;;5017188;28;20411;-67
2022/05/24 10:54:08;;;;;;;9.00;7.90;;;19.50;99.90;;;;;;5016706;28;20403;-75
2022/05/24 10:56:57;;;;;;;10.07;7.63;;;19.70;99.90;;;;;;5015026;28;20413;-76
2022/05/24 10:59:44;;;;;;;8.07;7.27;;;19.50;99.90;;;;;;5016707;28;20434;-77
2022/05/24 11:02:23;;;;;;;12.33;6.93;;;19.20;99.90;;;;;;5016649;28;20452;-76
2022/05/24 11:05:05;;;;;;;9.93;8.07;;;18.90;99.90;;;;;;5016450;28;20553;-75
2022/05/24 11:07:33;;;;;;;9.47;8.07;;;18.80;99.90;;;;;;5015821;28;20399;-76
2022/05/24 11:10:33;;;;;;;10.57;7.20;;;18.60;99.90;;;;;;5016564;28;20399;-76
2022/05/24 11:13:10;;;;;;;9.53;8.30;;;18.40;99.90;;;;;;5035584;28;20418;-75
2022/05/24 11:15:51;;;;;;;9.00;7.80;;;18.30;99.90;;;;;;5035903;28;20446;-76
2022/05/24 11:18:23;;;;;;;9.13;8.17;;;18.00;99.90;;;;;;5035468;28;20461;-66
2022/05/24 11:21:08;;;;;;;9.47;7.87;;;17.90;99.90;;;;;;5036035;28;20410;-67
2022/05/24 11:23:46;;;;;;;9.80;7.73;;;17.80;99.90;;;;;;5036249;28;20815;-77
2022/05/24 11:26:28;;;;;;;11.80;9.23;;;17.50;99.90;;;;;;5035980;28;20930;-74
2022/05/24 11:28:58;;;;;;;10.83;8.57;;;17.40;99.90;;;;;;5034569;28;20950;-69
2022/05/24 11:31:47;;;;;;;9.90;8.20;;;17.20;99.90;;;;;;5034890;28;20426;-74
2022/05/24 11:34:30;;;;;;;8.63;7.73;;;17.10;99.90;;;;;;5035854;28;20429;-66
2022/05/24 11:37:04;;;;;;;14.43;10.20;;;17.20;99.90;;;;;;5034845;28;20414;-67
2022/05/24 11:39:37;;;;;;;9.67;8.50;;;17.40;99.90;;;;;;5035846;28;20444;-66
2022/05/24 11:42:34;;;;;;;10.47;8.77;;;17.60;99.90;;;;;;5035842;28;20399;-66
2022/05/24 11:45:20;;;;;;;13.97;11.10;;;18.00;99.90;;;;;;5034647;28;20895;-66
2022/05/24 11:47:49;;;;;;;11.77;9.60;;;18.20;99.90;;;;;;5034612;28;20438;-66
2022/05/24 11:50:39;;;;;;;9.80;8.50;;;18.50;99.90;;;;;;5035616;28;20966;-66
2022/05/24 11:53:29;;;;;;;11.73;8.80;;;18.60;99.90;;;;;;5035203;28;20468;-67
2022/05/24 11:55:55;;;;;;;10.30;8.30;;;18.60;99.90;;;;;;5035634;28;20484;-76
2022/05/24 11:58:21;;;;;;;10.53;9.20;;;18.40;99.90;;;;;;5034491;28;20914;-75
2022/05/24 12:00:56;;;;;;;12.20;9.27;;;18.20;99.90;;;;;;5033640;28;20191;-76
2022/05/24 12:09:16;;;;;;;12.57;10.90;;;18.40;99.90;;;;;;5034804;28;20960;-75
2022/05/24 12:11:44;;;;;;;11.33;9.13;;;18.30;99.90;;;;;;5035190;28;20404;-76
2022/05/24 12:14:33;;;;;;;18.57;10.03;;;18.00;99.90;;;;;;5035159;28;20461;-75
2022/05/24 12:17:02;;;;;;;10.13;6.50;;;17.90;99.90;;;;;;5033105;28;20910;-74
2022/05/24 12:19:42;;;;;;;7.50;6.00;;;17.40;99.90;;;;;;5034900;28;20426;-67
2022/05/24 12:22:26;;;;;;;8.33;6.27;;;17.00;99.90;;;;;;5035139;28;20406;-75
2022/05/24 12:24:58;;;;;;;6.60;6.00;;;16.90;99.90;;;;;;5034908;28;20515;-66
2022/05/24 12:27:47;;;;;;;10.20;6.37;;;16.90;99.90;;;;;;5033911;28;20410;-74
2022/05/24 12:30:24;;;;;;;8.60;7.00;;;16.70;99.90;;;;;;5034696;28;20398;-75
2022/05/24 12:32:52;;;;;;;7.50;6.80;;;16.60;99.90;;;;;;5033824;28;20487;-75
2022/05/24 12:35:19;;;;;;;9.57;8.57;;;16.50;99.90;;;;;;5034836;28;20407;-74
2022/05/24 12:37:49;;;;;;;13.83;8.00;;;16.50;99.90;;;;;;5033739;28;20492;-66
2022/05/24 12:40:21;;;;;;;10.87;7.63;;;16.50;99.90;;;;;;5034796;28;20917;-67
2022/05/24 12:42:55;;;;;;;12.53;9.20;;;16.50;99.90;;;;;;5034681;28;20891;-67
2022/05/24 12:45:38;;;;;;;9.80;8.20;;;16.60;99.90;;;;;;5034089;28;20453;-67
2022/05/24 12:48:18;;;;;;;13.80;8.57;;;16.70;99.90;;;;;;5033555;28;20426;-75
2022/05/24 12:50:45;;;;;;;10.37;9.33;;;16.70;99.90;;;;;;5032820;28;20429;-66
2022/05/24 12:53:19;;;;;;;13.53;10.83;;;16.80;99.90;;;;;;5034506;28;20440;-67
2022/05/24 12:55:57;;;;;;;15.90;10.80;;;16.80;99.90;;;;;;5034355;28;20501;-67
2022/05/24 12:58:30;;;;;;;16.80;12.83;;;17.00;99.90;;;;;;5033433;28;20455;-67
2022/05/24 13:01:17;;;;;;;12.67;11.30;;;17.20;99.90;;;;;;5033000;28;20911;-67
2022/05/24 13:04:09;;;;;;;15.87;12.53;;;17.30;99.90;;;;;;5033669;28;20521;-66
2022/05/24 13:06:39;;;;;;;21.30;13.30;;;17.50;99.90;;;;;;5031023;28;20422;-67
2022/05/24 13:09:27;;;;;;;16.60;11.53;;;17.80;99.90;;;;;;5034042;28;20430;-66
2022/05/24 13:12:03;;;;;;;16.60;12.30;;;18.50;99.90;;;;;;5034074;28;20485;-66
2022/05/24 13:14:52;;;;;;;15.17;12.03;;;18.70;99.90;;;;;;5034182;28;20398;-74
2022/05/24 13:17:20;;;;;;;19.77;13.33;;;18.50;99.90;;;;;;5033087;28;20428;-75
2022/05/24 13:20:03;;;;;;;14.90;11.90;;;18.40;99.90;;;;;;5032483;28;20946;-66
2022/05/24 13:22:49;;;;;;;20.40;12.67;;;18.50;99.90;;;;;;5032401;28;20448;-74
2022/05/24 13:25:20;;;;;;;17.33;13.90;;;18.50;99.90;;;;;;5033827;28;20457;-74
2022/05/24 13:27:58;;;;;;;13.37;11.10;;;18.60;99.90;;;;;;5032800;28;20457;-74
2022/05/24 13:33:36;;;;;;;13.50;9.73;;;19.40;99.90;;;;;;5034196;28;20739;-76
2022/05/24 13:36:20;;;;;;;17.90;10.80;;;19.90;99.90;;;;;;5033646;28;20414;-74
2022/05/24 13:38:52;;;;;;;13.77;8.20;;;20.20;99.90;;;;;;5031450;28;20583;-72
2022/05/24 13:42:05;;;;;;;11.50;8.97;;;20.20;99.90;;;;;;5033797;28;20405;-66
2022/05/24 13:44:35;;;;;;;11.00;8.40;;;20.20;99.90;;;;;;5031535;28;20534;-66
2022/05/24 13:47:03;;;;;;;9.23;8.30;;;20.60;99.90;;;;;;5030479;28;20886;-66
2022/05/24 13:49:33;;;;;;;12.43;8.63;;;20.40;99.90;;;;;;5032557;28;20431;-74
2022/05/24 13:52:17;;;;;;;11.63;7.43;;;20.90;99.90;;;;;;5033486;28;20418;-74
2022/05/24 13:54:44;;;;;;;11.57;7.83;;;21.60;99.90;;;;;;5032435;28;20895;-75
2022/05/24 13:57:45;;;;;;;9.87;7.27;;;21.70;99.90;;;;;;5015258;28;20473;-65
2022/05/24 14:00:25;;;;;;;6.90;6.20;;;21.00;99.90;;;;;;5030533;28;21034;-74